Aérodrome :
LOGIN :

S'inscrire | Disclaimer

   EN    FR    IT 

 










Légende :    VFR   VFR Marginal   IFR   IFR Intensif   IFR Très Intensif
Visi : 
Plafond : 
>= 8 km
>= 3000ft
5 à 8 km
1000 à 3000 ft
1500m à 5 km
500 à 1000 ft
800 à 1500m
200 à 500 ft
< 800m
< 200 ft
Symboles :   Orages  Brouillard  Fortes neiges  Fortes précipitations  Vent > 20 kt
SIGMETs :   Divers  Orages  Givrage  Turbulence  Onde Orograph.  Cendres Volcan.







- Altitude de l'aérodrome : 364 ft
- Code IATA : FRA


EDDF - Frankfurt Int.

DERNIER METAR :
  • 241550Z 04014KT CAVOK 15/04 Q1026 NOSIG

METARs EXPIRÉS :
  • 241520Z 03013KT CAVOK 15/04 Q1026 NOSIG
  • 241450Z 03012KT CAVOK 14/05 Q1026 NOSIG
  • 241420Z 02012KT 360V060 CAVOK 14/05 Q1026 NOSIG
  • 241350Z 04011KT 9999 FEW038 BKN260 14/05 Q1026 NOSIG
  • 241320Z 03010KT 360V070 9999 FEW036 SCT260 14/05 Q1027 NOSIG
  • 241250Z 04011KT 010V080 9999 FEW033 SCT250 13/04 Q1027 NOSIG

TAF TAF EDDF
Valide du 24 à 12h jusqu'au 25 à 18h UTC


241100Z 2412/2518 05012KT 9999 FEW030
PROB30
TEMPO 2512/2516 04015G25KT
Pas de NOTAMs connus pour ce terrain.



MET'MAP, la Météo Aéronautique d'un coup d'oeil ! - Copyright ORBIFLY Décembre 2007 - Disclaimer

ORBIFLY MET'MAP TEAM :

Programmation & Développement : Alexandra Zaïnal
Conception & Développement : Baudouin d'Aumeries
Co-Programmation & Développement : Marc-Olivier Méhu
Soutien technique & logistique : Manuel Goepfert

Contact : metmap@orbifly.com




SOURCES & CREDITS :

   NOAA